Time;durP1;ratioP1;P1;durP2;ratioP2;P2;SDS_P1;SDS_P2;PMS_P1;PMS_P2;Temp;Humidity;BMP_temperature;BMP_pressure;BME280_temperature;BME280_humidity;BME280_pressure;Samples;Min_cycle;Max_cycle;Signal;HPM_P1;HPM_P2
2022/04/10 00:00:50;;;;;;;1.83;0.60;;;;;;;17.27;53.10;96830.72;10358975;28;20101;-22
2022/04/10 00:05:52;;;;;;;0.50;0.40;;;;;;;17.37;53.07;96849.34;10327142;28;20036;-23
2022/04/10 00:10:52;;;;;;;0.82;0.50;;;;;;;17.54;57.81;96855.34;10327482;28;20402;-21
2022/04/10 00:15:52;;;;;;;1.00;0.73;;;;;;;17.54;54.73;96860.41;10327009;28;20038;-22
2022/04/10 00:20:53;;;;;;;1.13;0.60;;;;;;;17.46;53.08;96857.00;10327107;28;20312;-23
2022/04/10 00:25:53;;;;;;;1.97;0.70;;;;;;;17.40;53.02;96851.91;10364641;28;20303;-22
2022/04/10 00:30:53;;;;;;;1.17;0.60;;;;;;;17.38;53.31;96848.50;10362576;28;20035;-22
2022/04/10 00:35:54;;;;;;;1.33;0.83;;;;;;;17.37;53.04;96846.81;10325214;28;20031;-23
2022/04/10 00:40:54;;;;;;;0.75;0.60;;;;;;;17.37;53.05;96851.88;10325422;28;20030;-23
2022/04/10 00:45:56;;;;;;;0.87;0.70;;;;;;;17.37;52.91;96852.75;10326226;28;20038;-23
2022/04/10 00:56:24;;;;;;;0.57;0.55;;;;;;;17.36;53.23;96852.72;10324984;28;20049;-22
2022/04/10 01:01:24;;;;;;;0.83;0.70;;;;;;;17.40;53.71;96856.97;10330590;28;20033;-23
2022/04/10 01:06:25;;;;;;;1.70;0.80;;;;;;;17.53;57.55;96867.19;10333668;28;20504;-21
2022/04/10 01:11:26;;;;;;;1.52;0.60;;;;;;;17.55;54.74;96864.63;10332423;28;20030;-21
2022/04/10 01:16:28;;;;;;;0.70;0.55;;;;;;;17.42;53.23;96857.81;10347486;28;20026;-22
2022/04/10 01:21:32;;;;;;;1.88;0.70;;;;;;;17.42;52.91;96867.94;10368586;28;20037;-23
2022/04/10 01:26:35;;;;;;;;;;;;;;;17.35;53.07;96863.66;10331952;28;20061;-21
2022/04/10 01:31:39;;;;;;;0.55;0.30;;;;;;;17.35;52.80;96863.66;10331667;28;19945;-21
2022/04/10 01:36:40;;;;;;;1.35;0.80;;;;;;;17.36;53.12;96862.84;10330342;28;20027;-21
2022/04/10 01:41:42;;;;;;;1.35;0.75;;;;;;;17.33;52.98;96863.63;10333072;28;20030;-22
2022/04/10 01:46:42;;;;;;;0.60;0.50;;;;;;;17.37;53.04;96877.19;10331950;28;20044;-22
2022/04/10 01:51:45;;;;;;;1.73;0.43;;;;;;;17.36;52.86;96871.28;10332553;28;20058;-22
2022/04/10 01:56:46;;;;;;;1.65;0.88;;;;;;;17.34;53.10;96867.84;10371956;28;20025;-21
2022/04/10 02:01:48;;;;;;;2.47;0.75;;;;;;;17.51;56.77;96865.47;10358234;28;20521;-22
2022/04/10 02:06:49;;;;;;;1.58;0.50;;;;;;;17.55;53.93;96867.16;10330379;28;20034;-22
2022/04/10 02:11:50;;;;;;;1.02;0.52;;;;;;;17.47;52.96;96858.69;10345816;28;20034;-23
2022/04/10 02:16:51;;;;;;;1.17;0.50;;;;;;;17.44;52.80;96858.69;10329638;28;20038;-22
2022/04/10 02:21:51;;;;;;;0.82;0.38;;;;;;;17.39;53.03;96846.00;10330806;28;20045;-22
2022/04/10 02:26:52;;;;;;;1.73;0.57;;;;;;;17.38;52.73;96846.84;10329259;28;20074;-22
2022/04/10 02:31:52;;;;;;;0.38;0.35;;;;;;;17.38;52.88;96853.56;10329874;28;20053;-21
2022/04/10 02:36:53;;;;;;;1.15;0.55;;;;;;;17.37;52.96;96847.69;10328923;28;20037;-23
2022/04/10 02:41:53;;;;;;;1.98;0.50;;;;;;;17.37;52.60;96852.75;10328999;28;20030;-22
2022/04/10 02:46:54;;;;;;;0.98;0.43;;;;;;;17.37;52.98;96856.94;10329794;28;20038;-22
2022/04/10 02:51:55;;;;;;;0.82;0.47;;;;;;;17.33;52.94;96856.03;10328475;28;20092;-22
2022/04/10 02:56:55;;;;;;;2.63;0.80;;;;;;;17.49;55.92;96872.22;10328504;28;20029;-22
2022/04/10 03:01:56;;;;;;;1.15;0.55;;;;;;;17.59;57.78;96869.72;10328382;28;20397;-23
2022/04/10 03:06:56;;;;;;;1.45;0.50;;;;;;;17.49;53.16;96873.06;10327795;28;20026;-22
2022/04/10 03:11:58;;;;;;;1.33;0.60;;;;;;;17.35;52.68;96858.59;10327483;28;20117;-22
2022/04/10 03:16:58;;;;;;;0.45;0.40;;;;;;;17.39;52.88;96876.38;10327281;28;20036;-23
2022/04/10 03:21:59;;;;;;;0.55;0.43;;;;;;;17.35;52.78;96867.03;10343896;28;20683;-21
2022/04/10 03:27:00;;;;;;;0.30;0.30;;;;;;;17.37;52.97;96877.19;10326169;28;20046;-23
2022/04/10 03:32:01;;;;;;;1.15;0.40;;;;;;;17.38;52.68;96881.41;10327093;28;20041;-21
2022/04/10 03:37:02;;;;;;;0.85;0.50;;;;;;;17.38;52.69;96883.94;10326769;28;20077;-22
2022/04/10 03:42:02;;;;;;;2.08;0.75;;;;;;;17.38;52.68;96889.00;10327266;28;20078;-23
2022/04/10 03:47:05;;;;;;;0.80;0.43;;;;;;;17.38;52.62;96894.06;10356264;28;20519;-21
2022/04/10 03:52:07;;;;;;;1.70;0.52;;;;;;;17.46;53.98;96897.50;10365599;28;20504;-22
2022/04/10 03:57:08;;;;;;;1.77;0.60;;;;;;;17.57;56.73;96903.50;10366926;28;20092;-23
2022/04/10 04:02:08;;;;;;;1.03;0.50;;;;;;;17.55;53.03;96907.66;10358759;28;20046;-23
2022/04/10 04:07:09;;;;;;;1.63;0.57;;;;;;;17.50;52.53;96904.28;10357505;28;20289;-24
2022/04/10 04:12:11;;;;;;;0.70;0.50;;;;;;;17.46;52.58;96907.63;10326046;28;20034;-23
2022/04/10 04:17:12;;;;;;;0.40;0.40;;;;;;;17.43;52.51;96907.59;10326945;28;20030;-21
2022/04/10 04:22:13;;;;;;;0.90;0.68;;;;;;;17.42;52.57;96910.97;10334211;28;20114;-21
2022/04/10 04:27:14;;;;;;;0.55;0.20;;;;;;;17.40;52.69;96922.78;10366404;28;20030;-22
2022/04/10 04:32:15;;;;;;;0.68;0.57;;;;;;;17.38;52.46;96920.22;10354220;28;20030;-21
2022/04/10 04:37:15;;;;;;;1.73;0.98;;;;;;;17.37;53.18;96931.19;10361447;28;20497;-22
2022/04/10 04:42:17;;;;;;;0.73;0.40;;;;;;;17.38;52.94;96948.06;10340087;28;20034;-23
2022/04/10 04:47:17;;;;;;;0.47;0.43;;;;;;;17.38;52.91;96945.53;10357349;28;20404;-21
2022/04/10 04:52:18;;;;;;;1.40;0.60;;;;;;;17.47;54.75;96965.84;10341448;28;20034;-22
2022/04/10 04:57:19;;;;;;;1.65;0.70;;;;;;;17.58;56.01;96961.72;10373342;28;20587;-24
2022/04/10 05:02:20;;;;;;;0.57;0.32;;;;;;;17.50;52.87;96970.09;10369853;28;20030;-22
2022/04/10 05:07:21;;;;;;;1.45;0.40;;;;;;;17.44;52.50;96972.56;10362142;28;20511;-22
2022/04/10 05:12:23;;;;;;;0.88;0.40;;;;;;;17.43;52.83;96968.34;10331966;28;20030;-22
2022/04/10 05:17:26;;;;;;;0.80;0.38;;;;;;;17.45;52.72;96966.66;10341822;28;20397;-23
2022/04/10 05:22:28;;;;;;;1.95;0.30;;;;;;;17.45;52.80;96976.78;10368324;28;20030;-21
2022/04/10 05:27:34;;;;;;;0.30;0.30;;;;;;;17.50;52.49;96982.75;10375158;28;20030;-22
2022/04/10 05:32:41;;;;;;;1.88;0.28;;;;;;;17.54;52.20;96989.53;10369438;28;20488;-22
2022/04/10 05:37:42;;;;;;;0.80;0.50;;;;;;;17.56;52.40;96987.88;10367023;28;20465;-23
2022/04/10 05:42:44;;;;;;;0.70;0.50;;;;;;;17.57;52.57;96997.16;10371217;28;20030;-22
2022/04/10 05:47:46;;;;;;;0.95;0.50;;;;;;;17.57;52.73;96999.69;10352605;28;20042;-22
2022/04/10 05:52:50;;;;;;;0.70;0.50;;;;;;;17.64;54.21;96999.75;10330461;28;20030;-21
2022/04/10 05:57:52;;;;;;;2.05;0.47;;;;;;;17.67;53.02;97011.59;10331019;28;20030;-19
2022/04/10 06:02:53;;;;;;;0.25;0.25;;;;;;;17.63;52.39;97022.50;10367902;28;20030;-21
2022/04/10 06:07:55;;;;;;;1.35;0.50;;;;;;;17.61;52.43;97024.19;10364952;28;20087;-23
2022/04/10 06:13:06;;;;;;;0.85;0.38;;;;;;;17.60;52.25;97037.69;10370507;28;20527;-22
2022/04/10 06:18:07;;;;;;;0.45;0.43;;;;;;;17.59;52.33;97036.00;10353823;28;20034;-22
2022/04/10 06:23:09;;;;;;;1.25;1.05;;;;;;;17.60;52.31;97043.59;10360457;28;20034;-22
2022/04/10 06:28:11;;;;;;;1.23;0.50;;;;;;;17.60;52.42;97040.22;10356002;28;20034;-23
2022/04/10 06:33:17;;;;;;;0.30;0.30;;;;;;;17.52;52.41;97021.56;10362033;28;21437;-22
2022/04/10 06:38:20;;;;;;;0.40;0.40;;;;;;;17.59;52.17;97036.00;10355935;28;20038;-21
2022/04/10 06:43:27;;;;;;;;;;;;;;;17.57;52.33;97028.38;10364036;28;20424;-21
2022/04/10 06:48:45;;;;;;;6.15;1.25;;;;;;;17.61;53.91;97034.31;10343665;28;20041;-21
2022/04/10 06:53:45;;;;;;;0.80;0.70;;;;;;;17.71;54.14;97033.53;10328079;28;20483;-21
2022/04/10 06:58:46;;;;;;;1.27;0.50;;;;;;;17.49;52.63;96988.66;10328958;28;20278;-21
2022/04/10 07:03:47;;;;;;;0.52;0.45;;;;;;;17.63;51.99;97027.56;10327976;28;20041;-23
2022/04/10 07:08:50;;;;;;;0.57;0.40;;;;;;;17.55;52.22;97030.03;10327635;28;20042;-22
2022/04/10 07:13:57;;;;;;;0.40;0.32;;;;;;;17.58;52.33;97029.22;10327284;28;20030;-23
2022/04/10 07:18:58;;;;;;;2.35;0.50;;;;;;;17.57;51.91;97032.59;10310823;28;20031;-22
2022/04/10 07:24:01;;;;;;;0.73;0.50;;;;;;;17.54;52.04;97033.41;10326802;28;20034;-22
2022/04/10 07:29:06;;;;;;;2.20;0.50;;;;;;;17.53;51.49;97041.00;10338124;28;20088;-23
2022/04/10 07:34:07;;;;;;;0.55;0.40;;;;;;;17.48;52.23;97035.06;10363703;28;20091;-23
2022/04/10 07:39:26;;;;;;;1.23;0.40;;;;;;;17.43;52.34;97022.38;10365815;28;20642;-21
2022/04/10 07:44:37;;;;;;;0.85;0.45;;;;;;;17.52;52.10;97031.69;10366458;28;20036;-22
2022/04/10 07:49:38;;;;;;;3.10;0.38;;;;;;;17.63;56.02;97032.63;10364814;28;20040;-22
2022/04/10 07:54:43;;;;;;;2.30;0.70;;;;;;;17.74;56.21;97031.06;10365857;28;20030;-22
2022/04/10 07:59:44;;;;;;;0.98;0.40;;;;;;;17.66;52.49;97041.09;10354236;28;20032;-21
2022/04/10 08:04:45;;;;;;;1.17;0.50;;;;;;;17.57;52.17;97028.38;10358321;28;20403;-23
2022/04/10 08:10:12;;;;;;;0.85;0.68;;;;;;;17.62;52.38;97046.13;10360271;28;20116;-21
2022/04/10 08:15:13;;;;;;;2.25;1.02;;;;;;;17.61;52.35;97049.50;10365561;28;20042;-21
2022/04/10 08:20:14;;;;;;;5.75;1.85;;;;;;;17.26;49.39;97055.88;10367535;28;20377;-23
2022/04/10 08:25:16;;;;;;;8.00;2.10;;;;;;;17.10;46.75;97054.03;10333549;28;20047;-22
2022/04/10 08:30:17;;;;;;;6.57;2.08;;;;;;;16.91;45.55;97058.03;10326606;28;20031;-22
2022/04/10 08:35:18;;;;;;;8.07;1.80;;;;;;;17.15;49.67;97067.59;10325366;28;20038;-23
2022/04/10 08:40:19;;;;;;;4.88;1.52;;;;;;;17.21;51.08;97071.03;10326589;28;20042;-23
2022/04/10 08:45:24;;;;;;;5.78;1.83;;;;;;;17.17;48.07;97071.81;10325862;28;20038;-22
2022/04/10 08:50:28;;;;;;;5.85;1.92;;;;;;;17.11;47.33;97081.03;10323945;28;20030;-23
2022/04/10 08:55:29;;;;;;;8.20;1.50;;;;;;;17.37;48.30;97090.63;10325713;28;20493;-22
2022/04/10 09:00:30;;;;;;;3.80;0.73;;;;;;;17.36;51.05;97088.06;10326261;28;20038;-23
2022/04/10 09:05:30;;;;;;;3.35;0.70;;;;;;;17.36;51.59;97094.00;10363024;28;20096;-23
2022/04/10 09:10:30;;;;;;;1.60;0.67;;;;;;;17.33;51.84;97088.84;10330282;28;20046;-23
2022/04/10 09:15:31;;;;;;;3.33;0.77;;;;;;;17.32;51.56;97083.78;10325757;28;20428;-23
2022/04/10 09:20:32;;;;;;;2.35;0.88;;;;;;;17.33;51.72;97090.56;10325750;28;20448;-22
2022/04/10 09:25:41;;;;;;;1.73;0.80;;;;;;;17.32;51.92;97096.44;10367596;28;20049;-22
2022/04/10 09:30:42;;;;;;;1.50;0.70;;;;;;;17.31;52.00;97093.06;10359352;28;20038;-23
2022/04/10 09:35:42;;;;;;;1.20;0.73;;;;;;;17.32;52.10;97091.38;10332191;28;20088;-22
2022/04/10 09:40:43;;;;;;;1.08;0.70;;;;;;;17.32;51.77;97091.38;10369101;28;20037;-22
2022/04/10 09:45:44;;;;;;;0.70;0.40;;;;;;;17.31;51.91;97085.47;10357256;28;20038;-21
2022/04/10 09:50:45;;;;;;;2.47;1.02;;;;;;;17.43;53.56;97077.19;10332806;28;20288;-22
2022/04/10 09:55:52;;;;;;;3.65;1.27;;;;;;;17.56;53.85;97081.53;10368389;28;20034;-22
2022/04/10 10:00:54;;;;;;;6.75;1.00;;;;;;;17.49;52.75;97083.13;10368163;28;20026;-22
2022/04/10 10:05:56;;;;;;;2.97;0.88;;;;;;;17.38;52.44;97071.22;10332040;28;20481;-22
2022/04/10 10:10:57;;;;;;;0.80;0.70;;;;;;;17.35;52.20;97071.16;10331072;28;20050;-22
2022/04/10 10:15:58;;;;;;;2.00;0.70;;;;;;;17.32;52.41;97066.91;10331181;28;20559;-23
2022/04/10 10:20:58;;;;;;;1.30;0.60;;;;;;;17.31;52.38;97064.38;10331204;28;20097;-23
2022/04/10 10:26:20;;;;;;;1.02;0.60;;;;;;;17.27;52.35;97055.06;10369162;28;20041;-23
2022/04/10 10:31:45;;;;;;;1.63;0.55;;;;;;;17.27;52.40;97060.13;10356341;28;20042;-22
2022/04/10 10:36:45;;;;;;;2.45;0.70;;;;;;;17.23;52.24;97054.16;10330693;28;20036;-22
2022/04/10 10:41:50;;;;;;;0.65;0.50;;;;;;;17.25;52.48;97054.19;10331177;28;20038;-22
2022/04/10 10:47:03;;;;;;;0.55;0.50;;;;;;;17.24;52.70;97057.56;10329086;28;20046;-22
2022/04/10 10:52:11;;;;;;;1.40;0.70;;;;;;;17.38;54.71;97053.50;10329598;28;20046;-22
2022/04/10 10:57:31;;;;;;;1.27;0.88;;;;;;;17.51;54.84;97058.69;10365206;28;20433;-23
2022/04/10 11:02:34;;;;;;;0.98;0.60;;;;;;;17.44;53.55;97051.03;10362313;28;20112;-22
2022/04/10 11:07:41;;;;;;;0.70;0.50;;;;;;;17.24;52.70;97038.16;10328677;28;20034;-23
2022/04/10 11:12:49;;;;;;;1.02;0.60;;;;;;;17.27;52.38;97048.31;10329079;28;20030;-22
2022/04/10 11:17:52;;;;;;;0.52;0.50;;;;;;;17.25;52.69;97044.06;10328419;28;20041;-22
2022/04/10 11:22:53;;;;;;;0.75;0.50;;;;;;;17.23;52.64;97041.53;10342193;28;20041;-22
2022/04/10 11:27:55;;;;;;;1.33;0.50;;;;;;;17.14;52.58;97020.38;10368641;28;20037;-22
2022/04/10 11:32:59;;;;;;;1.33;0.63;;;;;;;17.20;52.51;97033.03;10352587;28;20161;-23
2022/04/10 11:38:08;;;;;;;1.23;0.50;;;;;;;17.19;52.49;97023.75;10327752;28;20489;-23
2022/04/10 11:43:08;;;;;;;0.75;0.45;;;;;;;17.16;52.85;97014.47;10327298;28;20038;-22
2022/04/10 11:48:09;;;;;;;0.70;0.50;;;;;;;17.19;52.41;97019.56;10326969;28;20415;-22
2022/04/10 11:53:13;;;;;;;0.70;0.50;;;;;;;17.29;55.28;97016.28;10327256;28;20057;-24
2022/04/10 11:58:18;;;;;;;1.20;0.60;;;;;;;17.43;54.73;97007.19;10327373;28;20038;-22
2022/04/10 12:03:20;;;;;;;1.88;0.70;;;;;;;17.44;54.73;97008.00;10327124;28;20045;-22
2022/04/10 12:08:23;;;;;;;1.17;0.45;;;;;;;17.32;53.08;96992.69;10327953;28;20042;-24
2022/04/10 12:13:37;;;;;;;1.17;0.70;;;;;;;17.16;52.69;96983.28;10327543;28;20057;-23
2022/04/10 12:18:53;;;;;;;0.30;0.30;;;;;;;17.21;52.80;96991.72;10352112;28;20396;-24
2022/04/10 12:24:04;;;;;;;0.40;0.40;;;;;;;17.18;52.67;96986.66;10344721;28;20511;-24
2022/04/10 12:29:05;;;;;;;0.57;0.32;;;;;;;17.17;52.93;96984.97;10327610;28;20101;-22
2022/04/10 12:34:05;;;;;;;1.90;0.65;;;;;;;17.16;52.75;96990.84;10326756;28;20108;-22
2022/04/10 12:39:05;;;;;;;1.17;0.50;;;;;;;17.15;52.71;96989.16;10349487;28;20112;-22
2022/04/10 12:44:06;;;;;;;1.33;0.30;;;;;;;17.14;52.88;96984.94;10367507;28;20208;-22
2022/04/10 12:49:15;;;;;;;0.60;0.40;;;;;;;17.13;52.91;96984.09;10332760;28;20065;-22
2022/04/10 12:54:15;;;;;;;0.63;0.50;;;;;;;17.17;53.10;96984.97;10326436;28;20030;-22
2022/04/10 12:59:18;;;;;;;1.92;0.47;;;;;;;17.36;55.47;96977.59;10333560;28;20058;-22
2022/04/10 13:04:29;;;;;;;0.45;0.32;;;;;;;17.41;55.00;96980.16;10334056;28;20400;-22
2022/04/10 13:09:30;;;;;;;1.38;0.40;;;;;;;17.34;53.46;96988.50;10333738;28;20046;-23
2022/04/10 13:14:32;;;;;;;0.60;0.30;;;;;;;17.17;52.84;96969.78;10333362;28;20097;-23
2022/04/10 13:19:33;;;;;;;0.32;0.30;;;;;;;17.19;53.15;96981.63;10334148;28;20030;-22
2022/04/10 13:24:34;;;;;;;0.63;0.47;;;;;;;17.14;52.96;96979.88;10333488;28;20042;-22
2022/04/10 13:29:35;;;;;;;0.30;0.30;;;;;;;17.12;53.05;96972.28;10334754;28;20583;-22
2022/04/10 13:34:35;;;;;;;0.38;0.30;;;;;;;17.13;53.02;96962.97;10334048;28;20037;-22
2022/04/10 13:39:36;;;;;;;0.67;0.47;;;;;;;17.13;53.18;96962.97;10335615;28;20045;-22
2022/04/10 13:44:37;;;;;;;3.28;0.52;;;;;;;17.23;53.18;96949.59;10333630;28;20497;-22
2022/04/10 13:49:38;;;;;;;2.55;0.60;;;;;;;17.22;52.80;96952.94;10365574;28;20057;-24
2022/04/10 13:54:39;;;;;;;1.08;0.40;;;;;;;17.16;52.70;96952.91;10344463;28;20109;-22
2022/04/10 13:59:41;;;;;;;5.65;1.08;;;;;;;17.28;54.76;96953.00;10362020;28;20412;-22
2022/04/10 14:04:42;;;;;;;3.38;1.25;;;;;;;17.44;50.65;96954.84;10374070;28;20557;-21
2022/04/10 14:09:42;;;;;;;6.20;1.05;;;;;;;17.44;50.79;96949.78;10341697;28;20058;-22
2022/04/10 14:14:43;;;;;;;8.33;0.90;;;;;;;17.25;51.43;96937.81;10342850;28;20447;-22
2022/04/10 14:19:44;;;;;;;5.75;0.80;;;;;;;17.03;45.42;96936.78;10333319;28;20317;-22
2022/04/10 14:24:44;;;;;;;2.15;0.60;;;;;;;17.09;51.61;96930.91;10339860;28;20040;-22
2022/04/10 14:29:45;;;;;;;2.67;0.40;;;;;;;17.14;51.83;96934.34;10338712;28;20037;-22
2022/04/10 14:34:45;;;;;;;0.52;0.40;;;;;;;17.21;51.97;96931.00;10372927;28;20040;-21
2022/04/10 14:39:45;;;;;;;0.87;0.47;;;;;;;17.26;51.71;96925.16;10348427;28;20395;-22
2022/04/10 14:44:46;;;;;;;4.80;0.60;;;;;;;17.26;51.51;96929.38;10355949;28;20515;-20
2022/04/10 14:49:46;;;;;;;3.87;0.70;;;;;;;17.28;51.19;96930.22;10348808;28;20038;-22
2022/04/10 14:54:47;;;;;;;1.10;0.70;;;;;;;17.25;51.35;96917.56;10345861;28;20380;-21
2022/04/10 14:59:47;;;;;;;7.47;1.30;;;;;;;17.34;48.16;96921.00;10364608;28;20026;-24
2022/04/10 15:04:47;;;;;;;2.47;0.63;;;;;;;17.47;46.84;96909.31;10361605;28;20034;-22
2022/04/10 15:09:48;;;;;;;2.57;0.60;;;;;;;17.44;48.48;96909.28;10363495;28;20873;-21
2022/04/10 15:14:52;;;;;;;0.38;0.30;;;;;;;17.39;50.12;96910.94;10365087;28;20029;-22
2022/04/10 15:19:52;;;;;;;1.70;0.50;;;;;;;17.33;49.69;96910.88;10361787;28;20144;-21
2022/04/10 15:24:52;;;;;;;1.47;0.60;;;;;;;17.31;50.50;96912.56;10364288;28;20042;-22
2022/04/10 15:29:53;;;;;;;1.13;0.50;;;;;;;17.30;50.65;96900.72;10359049;28;20066;-22
2022/04/10 15:34:53;;;;;;;2.38;0.77;;;;;;;17.26;51.53;96899.00;10345568;28;20463;-21
2022/04/10 15:39:54;;;;;;;5.87;1.80;;;;;;;16.90;45.79;96898.72;10349011;28;20031;-22
2022/04/10 15:44:54;;;;;;;3.37;1.87;;;;;;;17.12;47.55;96890.47;10327243;28;20324;-21
2022/04/10 15:49:55;;;;;;;3.42;1.10;;;;;;;17.16;50.34;96894.72;10327530;28;20054;-21
2022/04/10 15:54:56;;;;;;;4.07;1.47;;;;;;;17.20;50.79;96884.63;10328047;28;20511;-21
2022/04/10 15:59:57;;;;;;;5.78;1.10;;;;;;;17.19;51.08;96884.63;10327790;28;20031;-22
2022/04/10 16:04:57;;;;;;;7.60;2.33;;;;;;;17.33;49.41;96883.03;10327341;28;20489;-21
2022/04/10 16:09:57;;;;;;;8.30;2.60;;;;;;;17.44;49.48;96884.00;10327234;28;20045;-22
2022/04/10 16:14:58;;;;;;;2.60;1.13;;;;;;;17.37;51.33;96887.31;10333124;28;20558;-21
2022/04/10 16:19:58;;;;;;;1.47;0.80;;;;;;;17.30;50.73;96880.47;10367187;28;20481;-22
2022/04/10 16:24:59;;;;;;;4.73;1.03;;;;;;;17.27;51.48;96880.47;10335884;28;20304;-21
2022/04/10 16:30:08;;;;;;;1.38;1.00;;;;;;;17.26;51.62;96878.78;10333547;28;20035;-21
2022/04/10 16:35:14;;;;;;;2.25;1.13;;;;;;;17.26;51.58;96868.66;10334347;28;20045;-21
2022/04/10 16:40:16;;;;;;;4.70;1.30;;;;;;;17.27;51.46;96862.75;10349955;28;20633;-21
2022/04/10 16:45:17;;;;;;;1.60;1.02;;;;;;;17.22;51.92;96852.59;10372054;28;20066;-22
2022/04/10 16:50:18;;;;;;;4.68;1.48;;;;;;;17.27;51.83;96857.69;10364886;28;20444;-22
2022/04/10 16:55:18;;;;;;;3.43;1.10;;;;;;;17.28;51.86;96856.84;10369114;28;20072;-22
2022/04/10 17:00:21;;;;;;;1.90;1.30;;;;;;;17.24;52.09;96845.03;10368652;28;20148;-22
2022/04/10 17:05:22;;;;;;;9.65;2.95;;;;;;;17.30;52.24;96842.50;10346164;28;20300;-21
2022/04/10 17:10:23;;;;;;;14.18;3.88;;;;;;;17.49;53.63;96849.44;10361353;28;20041;-22
2022/04/10 17:15:24;;;;;;;11.13;4.72;;;;;;;17.53;52.88;96853.66;10370511;28;20040;-22
2022/04/10 17:20:24;;;;;;;2.70;1.17;;;;;;;17.41;51.64;96846.00;10332235;28;20045;-21
2022/04/10 17:25:25;;;;;;;5.18;1.20;;;;;;;17.37;51.97;96844.28;10337907;28;20045;-22
2022/04/10 17:30:25;;;;;;;9.90;2.65;;;;;;;17.31;52.71;96841.72;10365612;28;20030;-21
2022/04/10 17:35:25;;;;;;;5.90;1.40;;;;;;;17.36;52.29;96850.19;10373100;28;20559;-22
2022/04/10 17:40:26;;;;;;;8.15;1.73;;;;;;;17.34;51.99;96852.66;10371666;28;20293;-23
2022/04/10 17:45:26;;;;;;;7.00;1.60;;;;;;;17.36;52.20;96860.31;10336787;28;20053;-22
2022/04/10 17:50:27;;;;;;;4.57;1.50;;;;;;;17.36;52.15;96865.38;10367643;28;20415;-23
2022/04/10 17:55:27;;;;;;;3.00;1.30;;;;;;;17.35;52.07;96864.50;10365858;28;20041;-22
2022/04/10 18:00:27;;;;;;;5.37;1.70;;;;;;;17.34;51.75;96872.91;10360785;28;20428;-22
2022/04/10 18:05:28;;;;;;;41.40;4.93;;;;;;;17.31;54.26;96883.03;10351840;28;20057;-22
2022/04/10 18:10:29;;;;;;;17.92;2.70;;;;;;;17.41;53.44;96878.91;10341926;28;20050;-23
2022/04/10 18:15:29;;;;;;;12.23;3.15;;;;;;;17.52;54.21;96872.22;10352648;28;20045;-23
2022/04/10 18:20:31;;;;;;;4.97;2.20;;;;;;;17.50;52.44;96874.75;10352433;28;20034;-23
2022/04/10 18:25:32;;;;;;;6.18;1.77;;;;;;;17.36;51.73;96862.84;10362050;28;20424;-23
2022/04/10 18:30:32;;;;;;;6.95;1.70;;;;;;;17.39;52.09;96881.44;10347709;28;20539;-23
2022/04/10 18:35:33;;;;;;;9.93;1.75;;;;;;;17.37;52.04;96879.72;10366535;28;20046;-22
2022/04/10 18:40:34;;;;;;;16.27;3.10;;;;;;;17.28;53.85;96879.63;10342449;28;20041;-22
2022/04/10 18:45:35;;;;;;;7.65;1.40;;;;;;;17.30;52.19;96880.47;10351473;28;20285;-22
2022/04/10 18:50:36;;;;;;;5.60;1.25;;;;;;;17.23;52.22;96878.75;10361192;28;20034;-27
2022/04/10 18:55:36;;;;;;;5.37;1.80;;;;;;;17.29;52.00;96888.91;10351882;28;20522;-23
2022/04/10 19:00:36;;;;;;;3.57;1.40;;;;;;;17.28;52.17;96898.19;10336017;28;20300;-23
2022/04/10 19:05:41;;;;;;;5.50;1.43;;;;;;;17.27;51.91;96890.59;10365643;28;20038;-23
2022/04/10 19:10:41;;;;;;;7.93;1.77;;;;;;;17.27;51.96;96886.38;10343835;28;20069;-23
2022/04/10 19:15:41;;;;;;;5.70;2.10;;;;;;;17.39;54.24;96881.44;10357914;28;20547;-23
2022/04/10 19:20:42;;;;;;;7.53;2.90;;;;;;;17.46;55.40;96864.59;10356108;28;20045;-22
2022/04/10 19:25:42;;;;;;;5.05;1.73;;;;;;;17.47;52.75;96873.88;10364129;28;20038;-22
2022/04/10 19:30:43;;;;;;;3.20;1.37;;;;;;;17.35;52.25;96887.28;10363345;28;20041;-23
2022/04/10 19:35:43;;;;;;;3.38;1.45;;;;;;;17.33;52.02;96895.69;10364171;28;20662;-23
2022/04/10 19:40:43;;;;;;;4.93;1.53;;;;;;;17.30;52.27;96901.56;10329225;28;20061;-23
2022/04/10 19:45:44;;;;;;;6.53;1.47;;;;;;;17.30;52.11;96903.25;10358796;28;20380;-23
2022/04/10 19:50:44;;;;;;;3.53;1.00;;;;;;;17.21;52.04;96880.41;10340736;28;20041;-23
2022/04/10 19:55:47;;;;;;;3.33;1.30;;;;;;;17.32;52.01;96899.06;10349157;28;20420;-23
2022/04/10 20:00:48;;;;;;;2.75;1.30;;;;;;;17.33;52.01;96900.75;10362987;28;20159;-22
2022/04/10 20:05:48;;;;;;;4.93;1.23;;;;;;;17.32;51.61;96904.13;10362291;28;20085;-23
2022/04/10 20:10:49;;;;;;;3.40;1.48;;;;;;;17.32;51.83;96909.19;10353297;28;20300;-23
2022/04/10 20:15:51;;;;;;;9.90;3.35;;;;;;;17.38;54.44;96904.19;10359205;28;20069;-23
2022/04/10 20:20:53;;;;;;;8.45;3.13;;;;;;;17.45;55.53;96880.63;10346014;28;20121;-22
2022/04/10 20:25:53;;;;;;;6.25;1.77;;;;;;;17.51;52.77;96901.75;10358763;28;20037;-23
2022/04/10 20:30:54;;;;;;;3.20;1.23;;;;;;;17.43;52.15;96900.00;10366161;28;20025;-23
2022/04/10 20:35:54;;;;;;;2.33;1.42;;;;;;;17.39;52.20;96898.28;10367170;28;20288;-23
2022/04/10 20:40:55;;;;;;;2.73;1.33;;;;;;;17.39;52.32;96900.81;10359002;28;20381;-23
2022/04/10 20:45:55;;;;;;;4.10;1.33;;;;;;;17.28;52.29;96877.09;10359283;28;20061;-23
2022/04/10 20:50:55;;;;;;;2.53;1.10;;;;;;;17.35;52.22;96883.91;10366767;28;20280;-22
2022/04/10 20:55:56;;;;;;;2.83;1.10;;;;;;;17.33;52.10;96886.41;10349362;28;20113;-22
2022/04/10 21:00:56;;;;;;;2.80;1.17;;;;;;;17.32;51.99;96883.88;10362612;28;20392;-23
2022/04/10 21:05:57;;;;;;;1.33;0.75;;;;;;;17.32;52.14;96888.94;10326559;28;20117;-23
2022/04/10 21:10:57;;;;;;;2.27;1.30;;;;;;;17.30;51.81;96872.88;10326229;28;20044;-22
2022/04/10 21:15:58;;;;;;;3.40;0.88;;;;;;;17.29;51.88;96863.59;10326376;28;20293;-22
2022/04/10 21:21:00;;;;;;;5.90;1.92;;;;;;;17.39;55.34;96860.31;10333885;28;20069;-23
2022/04/10 21:26:01;;;;;;;7.05;2.42;;;;;;;17.50;55.77;96857.03;10332826;28;20046;-23
2022/04/10 21:31:02;;;;;;;6.13;2.08;;;;;;;17.47;52.94;96853.63;10333310;28;20108;-23
2022/04/10 21:36:03;;;;;;;3.47;1.33;;;;;;;17.37;52.42;96851.88;10332905;28;20034;-22
2022/04/10 21:41:03;;;;;;;9.52;1.23;;;;;;;17.31;51.93;96857.72;10333331;28;20050;-22
2022/04/10 21:46:04;;;;;;;3.60;1.37;;;;;;;17.32;52.09;96859.41;10332583;28;20034;-22
2022/04/10 21:51:06;;;;;;;2.58;1.30;;;;;;;17.30;52.08;96865.28;10333307;28;20026;-23
2022/04/10 21:56:06;;;;;;;2.30;1.27;;;;;;;17.29;52.03;96858.53;10332412;28;20030;-23
2022/04/10 22:01:07;;;;;;;6.20;1.03;;;;;;;17.26;52.09;96861.88;10332201;28;20516;-23
2022/04/10 22:06:07;;;;;;;1.60;1.10;;;;;;;17.27;52.12;96855.16;10331565;28;20038;-23
2022/04/10 22:11:07;;;;;;;3.33;1.23;;;;;;;17.25;51.99;96861.91;10332014;28;20412;-23
2022/04/10 22:16:08;;;;;;;2.53;1.30;;;;;;;17.23;51.87;96868.63;10331269;28;20038;-23
2022/04/10 22:21:08;;;;;;;3.60;1.08;;;;;;;17.24;51.97;96876.22;10331777;28;20760;-22
2022/04/10 22:26:09;;;;;;;5.37;1.87;;;;;;;17.35;55.54;96874.63;10330432;28;20080;-23
2022/04/10 22:31:09;;;;;;;4.13;1.65;;;;;;;17.46;55.59;96872.19;10328895;28;20050;-23
2022/04/10 22:36:09;;;;;;;3.23;1.60;;;;;;;17.43;53.40;96873.03;10330382;28;20038;-23
2022/04/10 22:41:10;;;;;;;2.13;1.20;;;;;;;17.35;52.56;96878.84;10330559;28;20046;-22
2022/04/10 22:46:10;;;;;;;5.20;1.97;;;;;;;17.31;52.33;96893.16;10330065;28;20069;-22
2022/04/10 22:51:10;;;;;;;2.27;1.27;;;;;;;17.26;51.90;96887.19;10330072;28;20061;-23
2022/04/10 22:56:11;;;;;;;1.27;0.90;;;;;;;17.26;51.95;96893.94;10329897;28;20045;-22
2022/04/10 23:01:11;;;;;;;2.40;0.87;;;;;;;17.25;52.03;96887.19;10329606;28;20165;-23
2022/04/10 23:06:12;;;;;;;1.40;1.00;;;;;;;17.23;51.98;96883.81;10328717;28;20041;-23
2022/04/10 23:11:13;;;;;;;1.40;0.88;;;;;;;17.22;52.03;96870.31;10329422;28;20118;-23
2022/04/10 23:16:14;;;;;;;1.65;0.80;;;;;;;17.19;52.07;96864.38;10328614;28;20046;-22
2022/04/10 23:21:14;;;;;;;1.53;0.73;;;;;;;17.21;51.94;96868.63;10328316;28;20053;-22
2022/04/10 23:26:15;;;;;;;2.20;1.10;;;;;;;17.25;51.82;96866.97;10329036;28;20042;-22
2022/04/10 23:31:15;;;;;;;4.27;1.70;;;;;;;17.34;54.54;96864.50;10342029;28;20292;-23